Flat Rock, MI

6:07 PM EDT on September 29, 2016 (GMT -0400)
Timber Creek | | Change Station

Elev 615 ft 42.13 °N, 83.29 °W | Updated 4 seconds ago

Light Rain
Light Rain
62.4 °F
Feels Like 62.4 °F
N
4.0
Wind Variable Wind from ESE
Gusts 7.4 mph

Today
High -- | Low -- °F
--% Chance of Precip.
Yesterday
High -- | Low -- °F
Precip. -- in
Pressure 30.15 in
Visibility 3.0 miles
Clouds Mostly Cloudy 700 ft
Overcast 1200 ft
Dew Point 62 °F
Humidity 97%
Rainfall 1.07 in
Snow Depth Not available.
7:28 AM 7:17 PM
Waning Crescent, 1% visible
METAR KONZ 292154Z AUTO 05011G20KT 3SM -RA BKN007 OVC012 16/16 A3015 RMK AO2 T01630155
Pressure 30.15 in
Visibility 3.0 miles
Clouds Mostly Cloudy 700 ft
Overcast 1200 ft
Dew Point 62 °F
Humidity 97%
Rainfall 1.07 in
Snow Depth Not available.
7:28 AM 7:17 PM
Waning Crescent, 1% visible
METAR KONZ 292154Z AUTO 05011G20KT 3SM -RA BKN007 OVC012 16/16 A3015 RMK AO2 T01630155

10-Day Weather Forecast

Almanac

Astronomy

Sep. 29, 2016 Rise Set
Actual Time
Civil Twilight
Nautical Twilight
Astronomical Twilight
Moon
Length of Visible Light
Length of Day
Tomorrow will be .
, % of the Moon is Illuminated

Today's Extremes

State Highs State Lows

Community

WunderPhotos

Upload Photos

1,942,584 photos uploaded!

WunderBlog® & News

Nearby

Air Quality

  Air Quality AQ Index Pollutant
Not available.

Snow Depth

Station Depth Elevation

Earthquake Activity

City Distance Mag. Time & Date
Minimum magnitude displayed is 2.5.

Coastal Water Temperatures

Place Temperature

Stations

Nearby Weather Stations

Station Location Temp. Windchill Dew Point Humidity Wind Precip. Elev Updated Type
                   

Watches & Warnings

Areal Flood Watch
Issued: 11:58 AM EDT Sep. 29, 2016 – National Weather Service

... Flood Watch in effect through Friday evening...

The National Weather Service in Detroit/Pontiac has issued a

* Flood Watch for a portion of Southeast Michigan... including
the following areas... Genesee... Lapeer... Livingston... Macomb...
   Oakland... Shiawassee... St. Clair... Washtenaw and Wayne.

* Through Friday evening

* a persistent area of showers and thunderstorms has already
resulted in rainfall amounts ranging from 2 to 4 inches across
parts of Southeast Michigan. Several more opportunities for rain
may produce an additional 1 to 3 inches of rainfall by Friday
evening.

* Urban flooding... especially in the Detroit area... will be
possible. In addition... rapid rises of rivers and creeks already
swollen from recent rainfall may occur.

Precautionary/preparedness actions...

A Flood Watch means there is a potential for flooding based on
current forecasts.

You should monitor later forecasts and be alert for possible
flood warnings. Those living in areas prone to flooding should be
prepared to take action should flooding develop.

* Prepare... plan... and stay informed.
   Visit http://go.USA.Gov/c7kkp



Drk